Valley Falls, KS

2:57 PM CDT on September 23, 2014 (GMT -0500)
Forbes | Change Station
CLOSE
Current Station
Airport
Location: Topeka Forbes,
Elevation: 1079 ft
Nearby Weather Stations

Elev 1079 ft 38.95 °N, 95.66 °W | Updated 1 hour ago

Mostly Cloudy
Mostly Cloudy
73 °F
Feels Like 73 °F
N
17
Wind Variable Wind from South
Gusts 22 mph

Today
High -- | Low -- °F
--% Chance of Precip.
Yesterday
High -- | Low -- °F
Precip. -- in
7:10 AM 7:17 PM
Waning Crescent, 0% visible
Pressure 30.16 in
Visibility 10.0 miles
Clouds Mostly Cloudy 7000 ft
Dew Point 52 °F
Humidity 48%
Rainfall 0.00 in
Snow Depth Not available.
UV 4 out of 12
Pollen 4.90 out of 12
Air Quality Not available.
Flu Activity Not available.
METAR KFOE 231853Z 17015G19KT 10SM BKN070 23/11 A3017 RMK AO2 SLP211 T02280111

More Conditions Fewer Conditions

Pressure 30.16 in
Visibility 10.0 miles
Clouds Mostly Cloudy 7000 ft
Dew Point 52 °F
Humidity 48%
Rainfall 0.00 in
Snow Depth Not available.
UV 4 out of 12
Pollen 4.90 out of 12
Air Quality Not available.
Flu Activity Not available.
METAR KFOE 231853Z 17015G19KT 10SM BKN070 23/11 A3017 RMK AO2 SLP211 T02280111

More Conditions Fewer Conditions

10-Day Weather Forecast

Almanac

Astronomy

Sep. 23, 2014 Rise Set
Actual Time 7:10 AM CDT 7:17 PM CDT
Civil Twilight 6:43 AM CDT 7:43 PM CDT
Nautical Twilight 6:12 AM CDT 8:15 PM CDT
Astronomical Twilight 5:40 AM CDT 8:46 PM CDT
Moon 6:35 AM CDT 6:56 PM CDT
Length of Visible Light 13h 00m
Length of Day
12h 06m
Tomorrow will be 2m 33s shorter.
Waning Crescent, 0% of the Moon is Illuminated
Today
Waning Crescent
Sep 24
New
Oct 1
First Quarter
Oct 8
Full
Oct 15
Last Quarter

Today's Extremes

State Highs State Lows

Community

WunderPhotos

Upload Photos

1,755,788 photos uploaded!

WunderBlogs® & News

Nearby

Snow Depth

Station Depth Elevation
No new snow has been reported.

Earthquake Activity

City Distance Mag. Time & Date
No recent earthquake activity has been reported nearby.
Minimum magnitude displayed is 2.5.

Coastal Water Temperatures

Place Temperature
No Stations Reporting

Nearby Weather Stations